aviador You're here:

KFLL Decoded Metar

FORT LAUDERDALE in FL, USA
Report Time2018-01-22 11:53:00
UTC Time2018-01-22 12:04:34
Flight Rules vfr VFR
Wind130° at 10 kt
W.Decomp.*RWY 10: 8.1 kt HW 5.9 kt RCW
W.Rank130° ranks 1
Current wind is above 130° avg. (9.6)
Visibility9999 m
Phenomena:N/A
Clouds:Few 025 Hf
Expected CloudBase > 800 ft AGL from Temp-Dew spread
CeilingNone
Temp22°C (ISA +7)
Dew Point20°C (88% RH)
QNH1019 hPa
Density Alt935 ft
Elevation10 ft
Report Wrong Elevation
Raw Report
KFLL 221153Z 13010KT 10SM FEW025 22/20 A3009 RMK AO2 SLP189 70001
T02170200 10222 20217 51006=

Extra information for KFLL:More info

Metar Taf Metar & Taf Last 4 Metars F.Rules Stats Wind Profile Meteogram Temp Stats Airport Information Weather charts Add Link Nearby VenuesMetar ALERT Operation Metar Decoded Social comments

AIRNAV info for KFLL